createdAt,value
2023-03-14T00:00:18.844Z,0.77
2023-03-14T00:02:46.572Z,0.86
2023-03-14T00:05:13.940Z,1.11
2023-03-14T00:07:41.534Z,1.04
2023-03-14T00:10:13.572Z,0.78
2023-03-14T00:12:42.060Z,0.85
2023-03-14T00:15:10.917Z,0.68
2023-03-14T00:17:38.766Z,0.79
2023-03-14T00:20:12.135Z,0.72
2023-03-14T00:22:40.879Z,0.75
2023-03-14T00:25:10.409Z,0.82
2023-03-14T00:27:38.208Z,0.72
2023-03-14T00:30:09.164Z,0.57
2023-03-14T00:32:36.777Z,0.58
2023-03-14T00:35:05.392Z,0.61
2023-03-14T00:37:33.190Z,0.52
2023-03-14T00:40:00.586Z,0.55
2023-03-14T00:42:28.442Z,0.53
2023-03-14T00:44:56.064Z,0.50
2023-03-14T00:47:23.345Z,0.55
2023-03-14T00:49:51.747Z,0.28
2023-03-14T00:52:19.761Z,0.19
2023-03-14T00:54:47.089Z,0.22
2023-03-14T00:57:14.397Z,0.25
2023-03-14T00:59:42.220Z,0.32
2023-03-14T01:02:09.657Z,0.46
2023-03-14T01:04:38.850Z,0.43
2023-03-14T01:07:06.543Z,0.33
2023-03-14T01:09:33.826Z,0.55
2023-03-14T01:12:01.203Z,0.23
2023-03-14T01:14:28.946Z,0.37
2023-03-14T01:17:01.781Z,0.44
2023-03-14T01:19:29.804Z,0.19
2023-03-14T01:21:57.182Z,0.00
2023-03-14T01:24:24.517Z,-0.09
2023-03-14T01:26:52.361Z,0.05
2023-03-14T01:29:19.786Z,0.14
2023-03-14T01:31:47.354Z,0.11
2023-03-14T01:34:15.172Z,0.04
2023-03-14T01:36:42.424Z,0.02
2023-03-14T01:39:10.839Z,0.00
2023-03-14T01:41:38.784Z,-0.15
2023-03-14T01:44:06.354Z,-0.26
2023-03-14T01:46:38.222Z,-0.27
2023-03-14T01:49:30.970Z,-0.15
2023-03-14T01:52:04.508Z,-0.18
2023-03-14T01:54:39.754Z,-0.10
2023-03-14T01:57:26.420Z,-0.01
2023-03-14T01:59:59.126Z,-0.19
2023-03-14T02:02:27.934Z,-0.33
2023-03-14T02:04:57.450Z,-0.13
2023-03-14T02:07:50.931Z,-0.20
2023-03-14T02:10:23.477Z,-0.28
2023-03-14T02:12:52.793Z,-0.52
2023-03-14T02:15:20.626Z,-0.72
2023-03-14T02:17:48.839Z,-0.56
2023-03-14T02:20:43.834Z,-0.74
2023-03-14T02:23:12.469Z,-0.51
2023-03-14T02:25:46.423Z,-0.58
2023-03-14T02:28:14.560Z,-0.38
2023-03-14T02:30:42.485Z,-0.36
2023-03-14T02:33:12.605Z,-0.48
2023-03-14T02:36:03.773Z,-0.47
2023-03-14T02:38:47.491Z,-0.42
2023-03-14T02:41:16.128Z,-0.23
2023-03-14T02:43:44.230Z,-0.62
2023-03-14T02:46:17.150Z,-0.89
2023-03-14T02:48:51.632Z,-0.80
2023-03-14T02:51:19.622Z,-0.94
2023-03-14T02:53:47.520Z,-0.73
2023-03-14T02:56:15.210Z,-0.83
2023-03-14T02:58:42.470Z,-0.57
2023-03-14T03:01:10.702Z,-0.55
2023-03-14T03:03:38.825Z,-0.65
2023-03-14T03:06:06.549Z,-0.77
2023-03-14T03:08:34.550Z,-0.67
2023-03-14T03:11:01.835Z,-0.83
2023-03-14T03:13:30.622Z,-0.69
2023-03-14T03:15:58.578Z,-0.54
2023-03-14T03:18:25.933Z,-0.30
2023-03-14T03:20:55.008Z,-0.39
2023-03-14T03:23:23.408Z,-0.60
2023-03-14T03:25:52.228Z,-0.67
2023-03-14T03:28:20.661Z,-0.60
2023-03-14T03:30:48.368Z,-0.58
2023-03-14T03:33:15.921Z,-1.00
2023-03-14T03:35:45.779Z,-1.42
2023-03-14T03:38:14.471Z,-1.40
2023-03-14T03:40:43.570Z,-1.28
2023-03-14T03:43:12.203Z,-1.22
2023-03-14T03:45:40.716Z,-1.46
2023-03-14T03:48:08.129Z,-1.50
2023-03-14T03:50:35.570Z,-1.40
2023-03-14T03:53:03.320Z,-1.60
2023-03-14T03:55:30.697Z,-1.42
2023-03-14T03:57:58.682Z,-1.51
2023-03-14T04:00:26.396Z,-1.30
2023-03-14T04:02:54.264Z,-1.06
2023-03-14T04:05:22.170Z,-1.16
2023-03-14T04:07:49.948Z,-1.51
2023-03-14T04:10:17.903Z,-1.37
2023-03-14T04:12:47.448Z,-1.27
2023-03-14T04:15:15.472Z,-1.10
2023-03-14T04:17:43.411Z,-1.09
2023-03-14T04:20:14.061Z,-1.30
2023-03-14T04:22:44.474Z,-1.14
2023-03-14T04:25:12.469Z,-1.22
2023-03-14T04:27:41.297Z,-1.66
2023-03-14T04:30:10.003Z,-1.61
2023-03-14T04:32:41.115Z,-1.48
2023-03-14T04:35:08.850Z,-1.73
2023-03-14T04:37:36.331Z,-1.75
2023-03-14T04:40:07.433Z,-1.56
2023-03-14T04:42:34.866Z,-1.53
2023-03-14T04:45:02.708Z,-1.46
2023-03-14T04:47:30.845Z,-1.55
2023-03-14T04:49:58.485Z,-1.76
2023-03-14T04:52:27.560Z,-1.56
2023-03-14T04:54:56.126Z,-1.66
2023-03-14T04:57:24.077Z,-1.66
2023-03-14T04:59:52.026Z,-1.41
2023-03-14T05:02:23.009Z,-1.36
2023-03-14T05:04:50.601Z,-1.54
2023-03-14T05:07:20.347Z,-1.37
2023-03-14T05:09:48.384Z,-1.21
2023-03-14T05:12:18.399Z,-1.25
2023-03-14T05:14:46.206Z,-1.16
2023-03-14T05:17:15.602Z,-1.27
2023-03-14T05:19:43.432Z,-1.53
2023-03-14T05:22:11.825Z,-1.64
2023-03-14T05:24:40.083Z,-1.67
2023-03-14T05:27:07.897Z,-1.69
2023-03-14T05:29:35.298Z,-1.43
2023-03-14T05:32:03.300Z,-1.22
2023-03-14T05:34:30.923Z,-1.39
2023-03-14T05:37:01.386Z,-1.22
2023-03-14T05:39:29.206Z,-1.02
2023-03-14T05:41:57.306Z,-0.93
2023-03-14T05:44:25.313Z,-0.89
2023-03-14T05:46:53.571Z,-1.15
2023-03-14T05:49:21.181Z,-1.21
2023-03-14T05:51:48.953Z,-1.00
2023-03-14T05:54:17.083Z,-0.91
2023-03-14T05:56:44.873Z,-0.86
2023-03-14T05:59:12.505Z,-0.65
2023-03-14T06:01:40.427Z,-0.65
2023-03-14T06:04:08.698Z,-0.37
2023-03-14T06:06:36.279Z,-0.27
2023-03-14T06:09:04.011Z,0.04
2023-03-14T06:11:32.569Z,0.22
2023-03-14T06:13:59.956Z,0.37
2023-03-14T06:16:27.455Z,0.32
2023-03-14T06:18:55.250Z,0.73
2023-03-14T06:21:23.504Z,1.07
2023-03-14T06:23:50.918Z,1.01
2023-03-14T06:26:18.774Z,1.34
2023-03-14T06:28:46.130Z,1.41
2023-03-14T06:31:13.513Z,1.54
2023-03-14T06:33:41.453Z,1.67
2023-03-14T06:36:09.403Z,1.99
2023-03-14T06:38:36.915Z,2.35
2023-03-14T06:41:08.682Z,2.63
2023-03-14T06:43:36.435Z,3.00
2023-03-14T06:46:04.529Z,3.15
2023-03-14T06:48:32.787Z,3.09
2023-03-14T06:51:00.226Z,3.21
2023-03-14T06:53:27.715Z,3.30
2023-03-14T06:55:55.604Z,3.61
2023-03-14T06:58:22.939Z,3.49
2023-03-14T07:00:50.428Z,3.88
2023-03-14T07:03:19.393Z,4.12
2023-03-14T07:05:47.853Z,4.04
2023-03-14T07:08:15.223Z,4.27
2023-03-14T07:10:44.218Z,4.22
2023-03-14T07:13:11.797Z,4.40
2023-03-14T07:15:40.334Z,4.43
2023-03-14T07:18:08.356Z,4.43
2023-03-14T07:20:35.761Z,4.54
2023-03-14T07:23:04.419Z,4.91
2023-03-14T07:25:33.008Z,5.07
2023-03-14T07:28:00.454Z,5.17
2023-03-14T07:30:28.202Z,5.14
2023-03-14T07:32:56.465Z,5.32
2023-03-14T07:35:24.264Z,5.13
2023-03-14T07:37:52.004Z,5.09
2023-03-14T07:40:20.929Z,5.05
2023-03-14T07:42:49.398Z,4.87
2023-03-14T07:45:18.191Z,5.15
2023-03-14T07:47:46.065Z,5.18
2023-03-14T07:50:13.624Z,5.40
2023-03-14T07:52:41.025Z,5.50
2023-03-14T07:55:09.229Z,5.59
2023-03-14T07:57:36.594Z,5.62
2023-03-14T08:00:06.546Z,5.96
2023-03-14T08:02:40.340Z,5.95
2023-03-14T08:05:08.711Z,6.09
2023-03-14T08:07:36.145Z,6.14
2023-03-14T08:10:03.953Z,6.29
2023-03-14T08:12:31.730Z,6.34
2023-03-14T08:15:00.789Z,6.60
2023-03-14T08:17:29.000Z,6.92
2023-03-14T08:19:56.695Z,7.14
2023-03-14T08:22:24.040Z,6.91
2023-03-14T08:24:51.363Z,7.15
2023-03-14T08:27:19.200Z,7.22
2023-03-14T08:29:46.622Z,7.59
2023-03-14T08:32:14.148Z,7.50
2023-03-14T08:34:41.920Z,7.73
2023-03-14T08:37:19.960Z,7.90
2023-03-14T08:39:54.736Z,8.12
2023-03-14T08:42:22.067Z,8.25
2023-03-14T08:44:49.546Z,8.60
2023-03-14T08:47:17.301Z,8.85
2023-03-14T08:49:44.698Z,9.01
2023-03-14T08:52:12.467Z,9.04
2023-03-14T08:54:40.171Z,9.02
2023-03-14T08:57:07.712Z,9.07
2023-03-14T08:59:35.056Z,9.38
2023-03-14T09:02:04.650Z,9.73
2023-03-14T09:04:32.387Z,9.75
2023-03-14T09:07:00.751Z,10.02
2023-03-14T09:09:28.634Z,10.22
2023-03-14T09:11:56.057Z,10.40
2023-03-14T09:14:23.803Z,10.77
2023-03-14T09:16:52.066Z,10.50
2023-03-14T09:19:19.498Z,10.72
2023-03-14T09:21:46.859Z,11.17
2023-03-14T09:24:14.527Z,10.78
2023-03-14T09:26:42.043Z,11.28
2023-03-14T09:29:09.683Z,11.50
2023-03-14T09:31:37.542Z,11.37
2023-03-14T09:34:05.274Z,11.48
2023-03-14T09:36:32.834Z,10.97
2023-03-14T09:39:00.503Z,11.53
2023-03-14T09:41:32.861Z,11.38
2023-03-14T09:44:13.609Z,11.73
2023-03-14T09:46:44.163Z,11.68
2023-03-14T09:49:24.881Z,11.60
2023-03-14T09:51:55.575Z,11.93
2023-03-14T09:54:44.173Z,12.04
2023-03-14T09:57:19.480Z,11.52
2023-03-14T09:59:49.820Z,11.52
2023-03-14T10:02:32.894Z,11.77
2023-03-14T10:05:06.653Z,12.02
2023-03-14T10:07:34.634Z,12.02
2023-03-14T10:10:02.424Z,12.03
2023-03-14T10:12:35.410Z,11.99
2023-03-14T10:15:06.554Z,11.99
2023-03-14T10:17:44.336Z,12.13
2023-03-14T10:20:43.637Z,12.27
2023-03-14T10:23:13.951Z,12.16
2023-03-14T10:25:47.157Z,12.51
2023-03-14T10:28:32.908Z,12.76
2023-03-14T10:31:01.322Z,12.49
2023-03-14T10:33:31.104Z,12.80
2023-03-14T10:36:04.617Z,12.99
2023-03-14T10:38:37.823Z,12.90
2023-03-14T10:41:20.055Z,12.92
2023-03-14T10:43:52.458Z,13.14
2023-03-14T10:46:21.781Z,13.45
2023-03-14T10:49:07.223Z,13.73
2023-03-14T10:51:35.213Z,13.75
2023-03-14T10:54:13.512Z,13.85
2023-03-14T10:56:41.310Z,14.17
2023-03-14T10:59:14.774Z,13.97
2023-03-14T11:02:00.326Z,14.03
2023-03-14T11:04:54.713Z,13.85
2023-03-14T11:07:31.872Z,13.91
2023-03-14T11:10:35.141Z,14.26
2023-03-14T11:14:02.171Z,14.51
2023-03-14T11:16:49.097Z,14.30
2023-03-14T11:19:50.407Z,13.99
2023-03-14T11:22:42.573Z,13.97
2023-03-14T11:25:35.874Z,14.05
2023-03-14T11:28:16.136Z,14.31
2023-03-14T11:30:46.577Z,14.17
2023-03-14T11:33:18.172Z,13.94
2023-03-14T11:35:53.147Z,13.68
2023-03-14T11:38:36.325Z,13.99
2023-03-14T11:41:06.910Z,14.11
2023-03-14T11:43:41.348Z,14.15
2023-03-14T11:46:17.673Z,14.18
2023-03-14T11:49:28.690Z,14.40
2023-03-14T11:52:04.277Z,14.90
2023-03-14T11:54:44.107Z,15.24
2023-03-14T11:57:16.112Z,14.89
2023-03-14T11:59:55.609Z,15.15
2023-03-14T12:02:33.275Z,15.21
2023-03-14T12:05:28.219Z,15.34
2023-03-14T12:08:10.788Z,15.17
2023-03-14T12:11:24.682Z,14.89
2023-03-14T12:13:54.323Z,14.97
2023-03-14T12:16:25.126Z,15.36
2023-03-14T12:18:54.889Z,15.06
2023-03-14T12:21:24.808Z,15.45
2023-03-14T12:23:54.551Z,15.49
2023-03-14T12:26:27.957Z,15.36
2023-03-14T12:28:58.753Z,15.47
2023-03-14T12:31:35.162Z,15.07
2023-03-14T12:34:06.803Z,15.20
2023-03-14T12:36:52.202Z,15.21
2023-03-14T12:39:31.956Z,15.39
2023-03-14T12:42:42.447Z,14.95
2023-03-14T12:45:22.280Z,14.80
2023-03-14T12:48:02.572Z,14.85
2023-03-14T12:50:36.850Z,15.14
2023-03-14T12:53:29.209Z,15.06
2023-03-14T12:56:15.936Z,15.24
2023-03-14T12:58:55.700Z,15.50
2023-03-14T13:01:23.491Z,15.59
2023-03-14T13:03:58.102Z,15.82
2023-03-14T13:06:57.981Z,15.56
2023-03-14T13:09:55.050Z,15.53
2023-03-14T13:12:31.901Z,15.52
2023-03-14T13:15:01.499Z,15.20
2023-03-14T13:17:36.841Z,15.25
2023-03-14T13:20:16.251Z,15.31
2023-03-14T13:22:47.694Z,15.01
2023-03-14T13:25:15.323Z,15.02
2023-03-14T13:27:43.540Z,15.31
2023-03-14T13:30:29.125Z,15.51
2023-03-14T13:32:57.570Z,15.47
2023-03-14T13:35:28.919Z,15.70
2023-03-14T13:38:11.589Z,15.59
2023-03-14T13:40:40.175Z,15.57
2023-03-14T13:43:18.205Z,15.46
2023-03-14T13:45:49.943Z,15.46
2023-03-14T13:48:18.837Z,15.47
2023-03-14T13:51:00.736Z,15.30
2023-03-14T13:53:28.666Z,14.99
2023-03-14T13:55:56.505Z,15.12
2023-03-14T13:58:27.149Z,15.06
2023-03-14T14:01:02.052Z,15.26
2023-03-14T14:03:33.460Z,15.07
2023-03-14T14:06:01.216Z,15.35
2023-03-14T14:08:28.819Z,15.41
2023-03-14T14:11:02.837Z,15.53
2023-03-14T14:13:35.531Z,15.50
2023-03-14T14:16:05.090Z,15.60
2023-03-14T14:18:34.927Z,15.67
2023-03-14T14:21:03.960Z,15.77
2023-03-14T14:23:32.877Z,15.45
2023-03-14T14:26:01.198Z,15.39
2023-03-14T14:28:31.878Z,15.10
2023-03-14T14:31:18.382Z,15.13
2023-03-14T14:33:54.173Z,15.03
2023-03-14T14:36:29.024Z,15.21
2023-03-14T14:39:06.067Z,15.32
2023-03-14T14:41:36.793Z,15.35
2023-03-14T14:44:05.963Z,15.23
2023-03-14T14:46:36.827Z,15.63
2023-03-14T14:49:13.607Z,15.45
2023-03-14T14:51:50.454Z,15.39
2023-03-14T14:54:21.115Z,15.30
2023-03-14T14:56:54.763Z,15.56
2023-03-14T14:59:30.059Z,15.73
2023-03-14T15:02:03.714Z,14.95
2023-03-14T15:04:32.645Z,14.58
2023-03-14T15:07:00.124Z,14.80
2023-03-14T15:09:27.649Z,15.08
2023-03-14T15:11:55.435Z,15.08
2023-03-14T15:14:22.779Z,14.83
2023-03-14T15:16:52.119Z,14.96
2023-03-14T15:19:27.078Z,14.54
2023-03-14T15:21:55.082Z,14.25
2023-03-14T15:24:23.947Z,13.78
2023-03-14T15:26:52.697Z,13.73
2023-03-14T15:29:20.305Z,13.48
2023-03-14T15:31:48.589Z,13.32
2023-03-14T15:34:16.117Z,13.18
2023-03-14T15:36:43.742Z,12.92
2023-03-14T15:39:12.651Z,12.39
2023-03-14T15:41:40.117Z,12.17
2023-03-14T15:44:07.425Z,12.05
2023-03-14T15:46:35.376Z,11.94
2023-03-14T15:49:03.170Z,11.82
2023-03-14T15:51:30.598Z,11.49
2023-03-14T15:53:58.380Z,11.42
2023-03-14T15:56:27.579Z,11.28
2023-03-14T15:58:55.190Z,11.14
2023-03-14T16:01:23.122Z,10.94
2023-03-14T16:03:52.384Z,10.69
2023-03-14T16:06:20.352Z,10.69
2023-03-14T16:08:47.681Z,10.62
2023-03-14T16:11:16.234Z,10.42
2023-03-14T16:13:43.554Z,10.62
2023-03-14T16:16:13.330Z,10.36
2023-03-14T16:18:41.706Z,10.42
2023-03-14T16:21:14.084Z,10.14
2023-03-14T16:23:42.472Z,10.20
2023-03-14T16:26:13.435Z,10.04
2023-03-14T16:28:40.832Z,9.89
2023-03-14T16:31:11.317Z,9.78
2023-03-14T16:33:39.711Z,9.62
2023-03-14T16:36:10.938Z,9.62
2023-03-14T16:38:40.974Z,9.75
2023-03-14T16:41:15.886Z,9.54
2023-03-14T16:43:44.131Z,9.66
2023-03-14T16:46:17.338Z,9.53
2023-03-14T16:48:45.291Z,9.35
2023-03-14T16:51:14.335Z,9.39
2023-03-14T16:53:41.665Z,9.43
2023-03-14T16:56:09.691Z,9.29
2023-03-14T16:58:37.633Z,9.11
2023-03-14T17:01:10.678Z,9.04
2023-03-14T17:03:41.126Z,8.89
2023-03-14T17:06:12.455Z,8.82
2023-03-14T17:08:40.510Z,8.82
2023-03-14T17:11:08.597Z,8.83
2023-03-14T17:13:36.669Z,8.53
2023-03-14T17:16:04.982Z,8.54
2023-03-14T17:18:32.839Z,8.50
2023-03-14T17:21:01.992Z,8.62
2023-03-14T17:23:32.178Z,8.66
2023-03-14T17:26:00.112Z,8.49
2023-03-14T17:28:28.006Z,8.41
2023-03-14T17:31:03.717Z,8.28
2023-03-14T17:33:31.421Z,8.14
2023-03-14T17:36:01.493Z,8.37
2023-03-14T17:38:29.233Z,8.28
2023-03-14T17:40:56.900Z,8.33
2023-03-14T17:43:24.736Z,8.07
2023-03-14T17:45:59.915Z,8.05
2023-03-14T17:48:28.423Z,8.01
2023-03-14T17:50:58.948Z,7.95
2023-03-14T17:53:28.460Z,8.00
2023-03-14T17:55:55.833Z,7.95
2023-03-14T17:58:29.998Z,7.72
2023-03-14T18:00:57.892Z,7.53
2023-03-14T18:03:29.281Z,7.70
2023-03-14T18:05:58.414Z,7.65
2023-03-14T18:08:26.767Z,7.42
2023-03-14T18:10:56.593Z,7.53
2023-03-14T18:13:24.204Z,7.54
2023-03-14T18:15:52.962Z,7.46
2023-03-14T18:18:21.383Z,7.06
2023-03-14T18:20:51.081Z,7.04
2023-03-14T18:23:19.073Z,7.21
2023-03-14T18:25:50.018Z,7.30
2023-03-14T18:28:19.542Z,7.28
2023-03-14T18:30:52.574Z,7.24
2023-03-14T18:33:23.405Z,7.17
2023-03-14T18:35:53.958Z,7.24
2023-03-14T18:38:21.462Z,7.12
2023-03-14T18:40:48.866Z,7.02
2023-03-14T18:43:16.541Z,6.98
2023-03-14T18:45:44.031Z,6.90
2023-03-14T18:48:11.339Z,7.01
2023-03-14T18:50:39.104Z,6.82
2023-03-14T18:53:06.697Z,6.56
2023-03-14T18:55:35.407Z,6.71
2023-03-14T18:58:03.224Z,6.70
2023-03-14T19:00:30.622Z,6.60
2023-03-14T19:02:57.964Z,6.70
2023-03-14T19:05:27.491Z,6.61
2023-03-14T19:07:58.190Z,6.68
2023-03-14T19:10:26.683Z,6.50
2023-03-14T19:12:54.080Z,6.64
2023-03-14T19:15:21.525Z,6.52
2023-03-14T19:17:49.305Z,6.48
2023-03-14T19:20:19.555Z,6.31
2023-03-14T19:22:53.063Z,6.40
2023-03-14T19:25:21.201Z,6.21
2023-03-14T19:28:08.580Z,6.39
2023-03-14T19:30:51.159Z,6.25
2023-03-14T19:33:20.466Z,6.31
2023-03-14T19:35:48.769Z,6.22
2023-03-14T19:38:18.004Z,6.35
2023-03-14T19:40:47.133Z,6.40
2023-03-14T19:43:17.571Z,6.25
2023-03-14T19:45:46.647Z,6.28
2023-03-14T19:48:15.123Z,6.20
2023-03-14T19:50:43.995Z,6.14
2023-03-14T19:53:12.506Z,6.15
2023-03-14T19:55:46.629Z,6.16
2023-03-14T19:58:14.123Z,6.16
2023-03-14T20:00:41.939Z,6.09
2023-03-14T20:03:10.065Z,5.94
2023-03-14T20:05:40.169Z,5.96
2023-03-14T20:08:08.515Z,5.86
2023-03-14T20:10:37.423Z,5.91
2023-03-14T20:13:15.643Z,5.69
2023-03-14T20:15:47.142Z,5.60
2023-03-14T20:18:14.853Z,5.56
2023-03-14T20:20:44.196Z,5.58
2023-03-14T20:23:14.840Z,5.63
2023-03-14T20:25:43.519Z,5.62
2023-03-14T20:28:11.182Z,5.71
2023-03-14T20:30:39.169Z,5.75
2023-03-14T20:33:06.917Z,5.87
2023-03-14T20:35:34.788Z,5.79
2023-03-14T20:38:02.860Z,5.77
2023-03-14T20:40:30.603Z,5.89
2023-03-14T20:42:58.327Z,5.76
2023-03-14T20:45:26.265Z,5.85
2023-03-14T20:47:53.861Z,5.71
2023-03-14T20:50:21.556Z,5.59
2023-03-14T20:52:49.432Z,5.52
2023-03-14T20:55:17.184Z,5.55
2023-03-14T20:57:44.884Z,5.56
2023-03-14T21:00:16.043Z,5.61
2023-03-14T21:02:43.876Z,5.69
2023-03-14T21:05:12.247Z,5.49
2023-03-14T21:07:41.821Z,5.40
2023-03-14T21:10:14.303Z,5.54
2023-03-14T21:12:42.326Z,5.47
2023-03-14T21:15:10.167Z,5.33
2023-03-14T21:17:39.749Z,5.15
2023-03-14T21:20:11.706Z,5.23
2023-03-14T21:22:39.514Z,5.24
2023-03-14T21:25:07.360Z,5.26
2023-03-14T21:27:38.555Z,4.93
2023-03-14T21:30:06.973Z,4.64
2023-03-14T21:32:34.830Z,4.70
2023-03-14T21:35:02.353Z,4.71
2023-03-14T21:37:29.846Z,4.62
2023-03-14T21:39:57.548Z,4.87
2023-03-14T21:42:25.687Z,4.93
2023-03-14T21:44:53.127Z,4.91
2023-03-14T21:47:23.726Z,4.97
2023-03-14T21:49:52.031Z,5.00
2023-03-14T21:52:19.972Z,5.05
2023-03-14T21:54:48.366Z,4.96
2023-03-14T21:57:16.817Z,5.05
2023-03-14T21:59:45.833Z,5.08
2023-03-14T22:02:19.226Z,5.04
2023-03-14T22:04:46.967Z,5.20
2023-03-14T22:07:18.596Z,5.02
2023-03-14T22:09:47.771Z,5.17
2023-03-14T22:12:19.827Z,5.05
2023-03-14T22:14:48.276Z,4.90
2023-03-14T22:17:15.712Z,4.82
2023-03-14T22:19:43.051Z,4.67
2023-03-14T22:22:10.849Z,4.41
2023-03-14T22:24:38.256Z,4.35
2023-03-14T22:27:05.721Z,4.58
2023-03-14T22:29:34.619Z,4.35
2023-03-14T22:32:01.964Z,4.06
2023-03-14T22:34:31.817Z,4.27
2023-03-14T22:37:01.224Z,4.36
2023-03-14T22:39:29.321Z,4.16
2023-03-14T22:41:57.017Z,4.35
2023-03-14T22:44:24.907Z,4.34
2023-03-14T22:46:52.269Z,4.50
2023-03-14T22:49:19.616Z,4.66
2023-03-14T22:51:47.271Z,4.55
2023-03-14T22:54:14.616Z,4.73
2023-03-14T22:56:42.158Z,4.71
2023-03-14T22:59:09.894Z,4.66
2023-03-14T23:01:37.284Z,4.67
2023-03-14T23:04:05.092Z,4.71
2023-03-14T23:06:32.708Z,4.76
2023-03-14T23:08:59.999Z,4.55
2023-03-14T23:11:27.700Z,4.48
2023-03-14T23:13:55.287Z,4.43
2023-03-14T23:16:34.169Z,4.33
2023-03-14T23:19:09.955Z,4.48
2023-03-14T23:21:37.482Z,4.40
2023-03-14T23:24:06.229Z,4.40
2023-03-14T23:26:35.948Z,4.40
2023-03-14T23:29:07.525Z,4.24
2023-03-14T23:31:35.205Z,4.26
2023-03-14T23:34:02.959Z,4.04
2023-03-14T23:36:30.308Z,3.97
2023-03-14T23:38:57.944Z,3.82
2023-03-14T23:41:25.308Z,3.76
2023-03-14T23:43:52.822Z,3.87
2023-03-14T23:46:21.947Z,4.09
2023-03-14T23:48:49.295Z,4.04
2023-03-14T23:51:17.242Z,3.97
2023-03-14T23:53:44.967Z,4.06
2023-03-14T23:56:13.737Z,4.07
2023-03-14T23:58:41.826Z,3.83
